createdAt,value
2023-02-22T00:02:37.406Z,52.50
2023-02-22T00:05:17.234Z,51.60
2023-02-22T00:07:56.896Z,53.20
2023-02-22T00:10:33.897Z,53.90
2023-02-22T00:13:10.902Z,52.50
2023-02-22T00:15:47.578Z,50.10
2023-02-22T00:18:24.540Z,53.60
2023-02-22T00:21:01.826Z,53.80
2023-02-22T00:23:41.434Z,52.00
2023-02-22T00:26:19.187Z,52.60
2023-02-22T00:28:56.605Z,53.80
2023-02-22T00:31:33.724Z,53.50
2023-02-22T00:34:09.949Z,52.00
2023-02-22T00:36:49.723Z,53.60
2023-02-22T00:39:26.653Z,51.50
2023-02-22T00:42:03.089Z,53.20
2023-02-22T00:44:39.223Z,53.00
2023-02-22T00:47:16.067Z,53.40
2023-02-22T00:49:52.486Z,50.50
2023-02-22T00:52:28.352Z,51.60
2023-02-22T00:55:06.116Z,51.80
2023-02-22T00:57:42.557Z,54.20
2023-02-22T01:00:25.999Z,55.20
2023-02-22T01:03:02.603Z,52.10
2023-02-22T01:05:40.736Z,52.40
2023-02-22T01:08:20.174Z,52.50
2023-02-22T01:10:58.829Z,52.10
2023-02-22T01:13:35.215Z,50.10
2023-02-22T01:16:13.114Z,53.50
2023-02-22T01:18:49.960Z,52.00
2023-02-22T01:21:26.661Z,55.10
2023-02-22T01:24:03.530Z,52.60
2023-02-22T01:26:40.555Z,54.70
2023-02-22T01:29:17.819Z,55.10
2023-02-22T01:31:59.279Z,52.90
2023-02-22T01:34:36.235Z,51.30
2023-02-22T01:37:12.536Z,53.70
2023-02-22T01:39:49.704Z,53.90
2023-02-22T01:42:27.031Z,54.40
2023-02-22T01:45:50.365Z,52.50
2023-02-22T01:48:32.400Z,53.60
2023-02-22T01:51:13.306Z,50.90
2023-02-22T01:53:57.821Z,54.30
2023-02-22T01:56:40.113Z,52.50
2023-02-22T01:59:19.943Z,54.10
2023-02-22T02:01:57.224Z,56.30
2023-02-22T02:04:33.598Z,55.50
2023-02-22T02:07:13.990Z,54.10
2023-02-22T02:10:00.904Z,54.10
2023-02-22T02:12:40.262Z,51.80
2023-02-22T02:15:30.929Z,51.90
2023-02-22T02:18:13.123Z,53.30
2023-02-22T02:21:11.163Z,53.30
2023-02-22T02:24:36.407Z,52.30
2023-02-22T02:27:23.188Z,54.10
2023-02-22T02:30:44.476Z,55.00
2023-02-22T02:33:30.231Z,52.30
2023-02-22T02:36:17.992Z,54.40
2023-02-22T02:39:05.202Z,52.30
2023-02-22T02:41:46.835Z,54.40
2023-02-22T02:44:31.138Z,53.20
2023-02-22T02:47:13.387Z,51.80
2023-02-22T02:49:58.650Z,54.20
2023-02-22T02:52:39.166Z,53.40
2023-02-22T02:55:18.159Z,53.70
2023-02-22T02:57:54.320Z,53.20
2023-02-22T03:00:39.534Z,52.50
2023-02-22T03:03:44.455Z,53.80
2023-02-22T03:06:50.967Z,54.50
2023-02-22T03:09:51.916Z,53.10
2023-02-22T03:12:42.011Z,51.30
2023-02-22T03:15:36.665Z,53.00
2023-02-22T03:18:23.251Z,52.50
2023-02-22T03:21:14.537Z,54.00
2023-02-22T03:24:00.898Z,52.20
2023-02-22T03:26:45.839Z,52.50
2023-02-22T03:29:27.645Z,53.70
2023-02-22T03:32:07.401Z,54.90
2023-02-22T03:34:51.065Z,53.90
2023-02-22T03:37:36.121Z,55.40
2023-02-22T03:40:26.020Z,53.40
2023-02-22T03:43:12.451Z,54.20
2023-02-22T03:45:53.085Z,53.00
2023-02-22T03:48:40.170Z,52.90
2023-02-22T03:51:19.414Z,52.80
2023-02-22T03:53:59.352Z,55.60
2023-02-22T03:56:47.455Z,54.30
2023-02-22T03:59:28.365Z,54.00
2023-02-22T04:02:05.037Z,56.60
2023-02-22T04:04:41.843Z,55.10
2023-02-22T04:07:18.443Z,56.00
2023-02-22T04:09:55.567Z,55.50
2023-02-22T04:12:31.755Z,56.10
2023-02-22T04:15:16.925Z,55.50
2023-02-22T04:17:54.643Z,53.50
2023-02-22T04:20:31.982Z,56.40
2023-02-22T04:23:13.551Z,56.10
2023-02-22T04:25:50.630Z,57.10
2023-02-22T04:28:26.853Z,55.70
2023-02-22T04:31:14.350Z,52.00
2023-02-22T04:33:51.302Z,54.10
2023-02-22T04:36:31.944Z,54.70
2023-02-22T04:39:10.236Z,54.00
2023-02-22T04:41:47.807Z,56.50
2023-02-22T04:44:24.862Z,55.60
2023-02-22T04:47:00.628Z,56.70
2023-02-22T04:49:39.016Z,54.10
2023-02-22T04:52:16.307Z,56.80
2023-02-22T04:54:53.792Z,57.40
2023-02-22T04:57:31.152Z,55.10
2023-02-22T05:00:07.572Z,53.70
2023-02-22T05:02:45.362Z,51.00
2023-02-22T05:05:25.445Z,51.10
2023-02-22T05:08:02.314Z,51.00
2023-02-22T05:10:38.642Z,54.80
2023-02-22T05:13:15.404Z,52.60
2023-02-22T05:15:51.598Z,54.40
2023-02-22T05:18:27.903Z,54.90
2023-02-22T05:21:04.368Z,54.90
2023-02-22T05:23:41.094Z,56.50
2023-02-22T05:26:18.506Z,54.80
2023-02-22T05:28:55.676Z,56.00
2023-02-22T05:31:33.093Z,57.20
2023-02-22T05:34:09.683Z,54.00
2023-02-22T05:36:46.522Z,55.80
2023-02-22T05:39:23.775Z,55.60
2023-02-22T05:42:00.543Z,56.70
2023-02-22T05:44:36.939Z,56.40
2023-02-22T05:47:13.700Z,56.00
2023-02-22T05:49:50.341Z,56.40
2023-02-22T05:52:27.290Z,56.70
2023-02-22T05:55:04.908Z,55.60
2023-02-22T05:57:41.212Z,53.00
2023-02-22T06:00:27.797Z,55.10
2023-02-22T06:03:06.824Z,54.10
2023-02-22T06:05:44.455Z,56.20
2023-02-22T06:08:21.818Z,56.20
2023-02-22T06:10:59.080Z,55.70
2023-02-22T06:13:35.693Z,57.10
2023-02-22T06:16:14.044Z,55.70
2023-02-22T06:18:50.632Z,54.70
2023-02-22T06:21:27.779Z,52.50
2023-02-22T06:24:06.940Z,53.60
2023-02-22T06:26:44.262Z,54.80
2023-02-22T06:29:20.852Z,53.80
2023-02-22T06:31:57.823Z,54.00
2023-02-22T06:34:34.631Z,54.40
2023-02-22T06:37:11.546Z,57.50
2023-02-22T06:39:47.981Z,57.50
2023-02-22T06:42:25.319Z,54.40
2023-02-22T06:45:01.557Z,53.70
2023-02-22T06:47:40.344Z,52.20
2023-02-22T06:50:35.978Z,53.50
2023-02-22T06:53:13.282Z,52.10
2023-02-22T06:55:50.316Z,52.00
2023-02-22T06:58:27.481Z,52.90
2023-02-22T07:01:04.230Z,52.60
2023-02-22T07:03:41.024Z,52.30
2023-02-22T07:06:17.836Z,52.80
2023-02-22T07:08:54.637Z,53.40
2023-02-22T07:11:31.232Z,51.70
2023-02-22T07:14:07.827Z,55.00
2023-02-22T07:16:44.513Z,55.70
2023-02-22T07:19:20.849Z,56.30
2023-02-22T07:22:00.218Z,54.60
2023-02-22T07:24:37.908Z,53.80
2023-02-22T07:27:13.873Z,55.50
2023-02-22T07:29:51.722Z,57.10
2023-02-22T07:32:28.522Z,55.90
2023-02-22T07:35:05.737Z,57.70
2023-02-22T07:37:42.170Z,56.90
2023-02-22T07:40:19.851Z,59.50
2023-02-22T07:43:07.935Z,54.20
2023-02-22T07:45:44.830Z,54.10
2023-02-22T07:48:22.442Z,54.10
2023-02-22T07:50:58.045Z,55.20
2023-02-22T07:53:36.185Z,58.90
2023-02-22T07:56:14.458Z,58.50
2023-02-22T07:58:51.101Z,61.30
2023-02-22T08:01:27.100Z,59.30
2023-02-22T08:04:05.538Z,57.10
2023-02-22T08:06:42.738Z,56.70
2023-02-22T08:09:19.950Z,57.60
2023-02-22T08:11:56.730Z,56.70
2023-02-22T08:14:33.023Z,56.60
2023-02-22T08:17:09.757Z,59.40
2023-02-22T08:19:47.007Z,56.50
2023-02-22T08:22:23.760Z,57.30
2023-02-22T08:25:01.149Z,61.40
2023-02-22T08:27:38.211Z,58.00
2023-02-22T08:30:20.268Z,57.60
2023-02-22T08:32:58.374Z,58.80
2023-02-22T08:35:35.076Z,60.40
2023-02-22T08:38:21.064Z,59.60
2023-02-22T08:40:58.705Z,58.50
2023-02-22T08:43:36.425Z,65.80
2023-02-22T08:46:14.134Z,63.10
2023-02-22T08:48:58.367Z,63.10
2023-02-22T08:51:39.246Z,63.90
2023-02-22T08:54:15.714Z,63.20
2023-02-22T08:56:53.642Z,62.20
2023-02-22T08:59:30.070Z,60.90
2023-02-22T09:02:06.721Z,61.30
2023-02-22T09:04:43.337Z,61.70
2023-02-22T09:07:20.272Z,61.30
2023-02-22T09:09:57.347Z,60.10
2023-02-22T09:12:34.577Z,60.00
2023-02-22T09:15:12.923Z,58.60
2023-02-22T09:17:52.950Z,58.90
2023-02-22T09:20:31.106Z,57.90
2023-02-22T09:23:07.937Z,57.70
2023-02-22T09:25:44.723Z,61.60
2023-02-22T09:28:22.109Z,51.90
2023-02-22T09:30:58.347Z,50.50
2023-02-22T09:33:34.556Z,47.00
2023-02-22T09:36:14.630Z,48.60
2023-02-22T09:38:51.761Z,52.30
2023-02-22T09:41:36.587Z,51.00
2023-02-22T09:44:28.036Z,47.30
2023-02-22T09:47:05.148Z,41.60
2023-02-22T09:49:53.044Z,44.80
2023-02-22T09:52:44.440Z,45.80
2023-02-22T09:55:36.721Z,41.80
2023-02-22T09:58:26.373Z,42.60
2023-02-22T10:01:16.653Z,46.80
2023-02-22T10:04:02.821Z,41.60
2023-02-22T10:06:42.121Z,41.60
2023-02-22T10:09:19.462Z,44.90
2023-02-22T10:12:12.026Z,46.10
2023-02-22T10:15:31.337Z,44.00
2023-02-22T10:18:48.936Z,42.40
2023-02-22T10:21:43.958Z,39.90
2023-02-22T10:24:40.312Z,45.50
2023-02-22T10:27:27.399Z,40.80
2023-02-22T10:30:24.578Z,41.50
2023-02-22T10:33:13.863Z,37.60
2023-02-22T10:35:53.101Z,38.60
2023-02-22T10:38:33.101Z,38.80
2023-02-22T10:41:26.474Z,38.90
2023-02-22T10:44:03.725Z,37.20
2023-02-22T10:46:42.372Z,39.90
2023-02-22T10:49:24.004Z,41.30
2023-02-22T10:52:07.273Z,36.30
2023-02-22T10:54:50.872Z,37.20
2023-02-22T10:57:31.677Z,37.60
2023-02-22T11:00:26.502Z,37.60
2023-02-22T11:03:06.242Z,42.00
2023-02-22T11:05:45.236Z,37.50
2023-02-22T11:08:34.573Z,38.90
2023-02-22T11:11:27.391Z,38.60
2023-02-22T11:14:06.933Z,39.70
2023-02-22T11:16:50.711Z,41.10
2023-02-22T11:19:32.480Z,39.30
2023-02-22T11:22:24.583Z,40.90
2023-02-22T11:25:05.158Z,38.10
2023-02-22T11:27:47.346Z,39.10
2023-02-22T11:30:36.543Z,41.80
2023-02-22T11:33:26.792Z,37.20
2023-02-22T11:36:08.917Z,41.10
2023-02-22T11:39:00.348Z,42.30
2023-02-22T11:41:38.560Z,40.80
2023-02-22T11:44:30.424Z,37.90
2023-02-22T11:47:13.820Z,39.10
2023-02-22T11:49:53.673Z,36.40
2023-02-22T11:52:42.593Z,41.60
2023-02-22T11:55:42.678Z,40.60
2023-02-22T11:58:45.181Z,40.50
2023-02-22T12:01:32.508Z,44.10
2023-02-22T12:04:48.491Z,43.80
2023-02-22T12:07:46.861Z,39.20
2023-02-22T12:10:43.883Z,38.70
2023-02-22T12:13:41.838Z,40.40
2023-02-22T12:16:32.011Z,39.50
2023-02-22T12:19:28.760Z,44.90
2023-02-22T12:22:15.183Z,40.10
2023-02-22T12:25:09.593Z,38.30
2023-02-22T12:27:56.132Z,38.60
2023-02-22T12:30:39.433Z,41.60
2023-02-22T12:33:22.912Z,43.00
2023-02-22T12:36:04.461Z,43.70
2023-02-22T12:38:46.637Z,45.30
2023-02-22T12:41:34.315Z,41.90
2023-02-22T12:44:20.531Z,41.90
2023-02-22T12:47:01.722Z,43.40
2023-02-22T12:49:43.031Z,46.40
2023-02-22T12:52:31.176Z,42.20
2023-02-22T12:55:15.988Z,41.10
2023-02-22T12:58:01.350Z,40.20
2023-02-22T13:00:47.737Z,41.00
2023-02-22T13:03:47.089Z,41.50
2023-02-22T13:06:52.800Z,42.10
2023-02-22T13:09:53.445Z,41.30
2023-02-22T13:12:40.888Z,41.20
2023-02-22T13:15:28.427Z,42.20
2023-02-22T13:18:19.278Z,39.00
2023-02-22T13:21:06.986Z,39.60
2023-02-22T13:23:56.361Z,46.70
2023-02-22T13:26:41.681Z,37.70
2023-02-22T13:29:22.881Z,42.60
2023-02-22T13:32:39.490Z,41.60
2023-02-22T13:35:58.336Z,40.00
2023-02-22T13:39:07.297Z,38.00
2023-02-22T13:42:23.010Z,40.10
2023-02-22T13:46:01.972Z,37.00
2023-02-22T13:49:13.573Z,40.50
2023-02-22T13:51:56.689Z,39.30
2023-02-22T13:54:49.039Z,40.50
2023-02-22T13:57:33.854Z,38.40
2023-02-22T14:00:51.020Z,38.90
2023-02-22T14:03:42.916Z,45.00
2023-02-22T14:06:45.944Z,40.20
2023-02-22T14:09:48.729Z,40.40
2023-02-22T14:13:07.393Z,38.20
2023-02-22T14:16:20.080Z,38.30
2023-02-22T14:19:06.855Z,38.50
2023-02-22T14:22:02.305Z,38.10
2023-02-22T14:24:52.442Z,39.50
2023-02-22T14:27:41.384Z,39.80
2023-02-22T14:30:35.426Z,40.20
2023-02-22T14:34:01.649Z,38.50
2023-02-22T14:36:56.317Z,37.30
2023-02-22T14:39:39.926Z,37.60
2023-02-22T14:42:26.412Z,42.90
2023-02-22T14:45:21.668Z,38.20
2023-02-22T14:48:12.123Z,39.00
2023-02-22T14:51:05.872Z,38.10
2023-02-22T14:53:54.587Z,37.30
2023-02-22T14:56:41.146Z,39.50
2023-02-22T14:59:27.352Z,37.80
2023-02-22T15:02:18.374Z,38.60
2023-02-22T15:05:01.382Z,37.60
2023-02-22T15:07:39.084Z,35.80
2023-02-22T15:10:34.067Z,39.80
2023-02-22T15:13:21.308Z,36.30
2023-02-22T15:16:05.111Z,36.00
2023-02-22T15:18:47.259Z,37.50
2023-02-22T15:21:27.360Z,37.50
2023-02-22T15:24:08.061Z,39.00
2023-02-22T15:27:00.131Z,37.40
2023-02-22T15:29:44.502Z,38.00
2023-02-22T15:32:37.218Z,41.30
2023-02-22T15:35:31.671Z,38.70
2023-02-22T15:38:22.809Z,44.00
2023-02-22T15:41:14.193Z,42.60
2023-02-22T15:44:23.314Z,41.80
2023-02-22T15:47:00.537Z,40.70
2023-02-22T15:49:39.014Z,39.40
2023-02-22T15:52:26.432Z,39.70
2023-02-22T15:55:03.233Z,39.40
2023-02-22T15:57:43.141Z,41.30
2023-02-22T16:00:36.669Z,40.30
2023-02-22T16:03:18.790Z,37.90
2023-02-22T16:05:59.195Z,39.30
2023-02-22T16:08:55.148Z,42.30
2023-02-22T16:11:39.994Z,43.10
2023-02-22T16:14:43.404Z,43.10
2023-02-22T16:17:35.670Z,42.10
2023-02-22T16:20:41.544Z,42.90
2023-02-22T16:23:35.926Z,43.90
2023-02-22T16:26:32.862Z,37.60
2023-02-22T16:29:27.397Z,45.70
2023-02-22T16:32:04.115Z,42.80
2023-02-22T16:34:40.391Z,46.80
2023-02-22T16:37:31.687Z,47.10
2023-02-22T16:40:14.400Z,50.80
2023-02-22T16:42:52.561Z,49.40
2023-02-22T16:45:29.821Z,45.50
2023-02-22T16:48:14.179Z,51.00
2023-02-22T16:50:52.730Z,64.50
2023-02-22T16:53:34.548Z,48.80
2023-02-22T16:56:17.881Z,45.70
2023-02-22T16:58:56.832Z,41.30
2023-02-22T17:01:35.745Z,42.50
2023-02-22T17:04:20.819Z,49.20
2023-02-22T17:06:59.174Z,55.70
2023-02-22T17:09:35.559Z,51.00
2023-02-22T17:12:15.167Z,46.40
2023-02-22T17:14:52.764Z,44.70
2023-02-22T17:17:29.602Z,46.90
2023-02-22T17:20:11.652Z,45.20
2023-02-22T17:22:48.356Z,46.20
2023-02-22T17:25:34.021Z,42.80
2023-02-22T17:28:12.000Z,42.60
2023-02-22T17:30:50.158Z,43.60
2023-02-22T17:33:31.182Z,43.50
2023-02-22T17:36:13.552Z,46.10
2023-02-22T17:38:50.634Z,43.50
2023-02-22T17:41:27.570Z,46.90
2023-02-22T17:44:04.703Z,49.00
2023-02-22T17:46:43.171Z,54.40
2023-02-22T17:49:19.966Z,49.80
2023-02-22T17:51:58.215Z,46.10
2023-02-22T17:54:37.054Z,43.80
2023-02-22T17:57:15.111Z,44.20
2023-02-22T17:59:52.720Z,41.20
2023-02-22T18:02:29.769Z,43.60
2023-02-22T18:05:08.198Z,50.50
2023-02-22T18:07:45.666Z,49.20
2023-02-22T18:10:22.540Z,47.60
2023-02-22T18:13:02.105Z,46.90
2023-02-22T18:15:39.125Z,49.70
2023-02-22T18:18:16.520Z,47.90
2023-02-22T18:21:00.155Z,47.60
2023-02-22T18:23:38.142Z,46.40
2023-02-22T18:26:20.842Z,43.80
2023-02-22T18:28:57.740Z,44.20
2023-02-22T18:31:34.560Z,44.90
2023-02-22T18:34:13.117Z,43.90
2023-02-22T18:36:50.745Z,43.90
2023-02-22T18:39:31.675Z,46.30
2023-02-22T18:42:08.278Z,47.80
2023-02-22T18:44:46.480Z,50.00
2023-02-22T18:47:23.827Z,48.80
2023-02-22T18:50:01.499Z,48.00
2023-02-22T18:52:46.721Z,46.00
2023-02-22T18:55:24.486Z,47.20
2023-02-22T18:58:02.781Z,48.40
2023-02-22T19:00:41.428Z,47.80
2023-02-22T19:03:19.072Z,45.30
2023-02-22T19:05:57.316Z,47.10
2023-02-22T19:08:35.051Z,47.30
2023-02-22T19:11:18.096Z,45.90
2023-02-22T19:13:57.383Z,47.90
2023-02-22T19:16:35.261Z,48.40
2023-02-22T19:19:12.012Z,48.10
2023-02-22T19:21:49.718Z,47.00
2023-02-22T19:24:26.547Z,49.50
2023-02-22T19:27:04.009Z,48.60
2023-02-22T19:29:41.480Z,51.70
2023-02-22T19:32:19.358Z,50.60
2023-02-22T19:35:02.419Z,45.70
2023-02-22T19:37:40.957Z,42.70
2023-02-22T19:40:18.636Z,48.70
2023-02-22T19:42:57.578Z,45.80
2023-02-22T19:45:42.026Z,49.70
2023-02-22T19:48:19.179Z,52.90
2023-02-22T19:51:00.334Z,52.00
2023-02-22T19:53:39.487Z,48.50
2023-02-22T19:56:20.119Z,46.30
2023-02-22T19:58:57.343Z,49.80
2023-02-22T20:01:36.836Z,49.50
2023-02-22T20:04:18.854Z,48.70
2023-02-22T20:06:56.220Z,46.60
2023-02-22T20:09:37.383Z,52.20
2023-02-22T20:12:15.830Z,49.30
2023-02-22T20:14:53.420Z,49.90
2023-02-22T20:17:31.760Z,47.80
2023-02-22T20:20:13.215Z,50.50
2023-02-22T20:22:50.492Z,49.40
2023-02-22T20:25:27.416Z,50.30
2023-02-22T20:28:07.519Z,50.40
2023-02-22T20:30:45.110Z,49.20
2023-02-22T20:33:22.881Z,50.90
2023-02-22T20:35:59.490Z,51.90
2023-02-22T20:38:36.922Z,53.90
2023-02-22T20:41:22.542Z,51.90
2023-02-22T20:44:00.530Z,49.10
2023-02-22T20:46:37.973Z,51.60
2023-02-22T20:49:17.472Z,51.70
2023-02-22T20:51:54.448Z,51.60
2023-02-22T20:54:31.740Z,45.40
2023-02-22T20:57:09.050Z,46.80
2023-02-22T20:59:46.495Z,48.50
2023-02-22T21:02:23.599Z,50.50
2023-02-22T21:05:00.964Z,46.80
2023-02-22T21:07:38.157Z,49.00
2023-02-22T21:10:16.700Z,46.70
2023-02-22T21:12:54.034Z,46.00
2023-02-22T21:15:32.581Z,50.20
2023-02-22T21:18:10.183Z,48.90
2023-02-22T21:20:48.438Z,48.70
2023-02-22T21:23:24.976Z,45.50
2023-02-22T21:26:01.699Z,51.30
2023-02-22T21:28:50.997Z,51.00
2023-02-22T21:31:29.363Z,51.30
2023-02-22T21:34:07.127Z,54.10
2023-02-22T21:36:44.341Z,51.60
2023-02-22T21:39:22.922Z,49.10
2023-02-22T21:42:01.530Z,51.40
2023-02-22T21:44:38.087Z,48.90
2023-02-22T21:47:15.087Z,48.40
2023-02-22T21:49:51.960Z,48.70
2023-02-22T21:52:29.172Z,48.90
2023-02-22T21:55:07.798Z,49.10
2023-02-22T21:57:45.269Z,51.80
2023-02-22T22:00:29.647Z,53.40
2023-02-22T22:03:12.723Z,51.60
2023-02-22T22:05:49.328Z,50.80
2023-02-22T22:08:28.072Z,53.00
2023-02-22T22:11:05.824Z,51.80
2023-02-22T22:13:45.362Z,50.70
2023-02-22T22:16:23.339Z,51.00
2023-02-22T22:18:59.681Z,52.10
2023-02-22T22:21:38.215Z,52.70
2023-02-22T22:24:17.898Z,48.80
2023-02-22T22:26:56.837Z,50.30
2023-02-22T22:29:34.775Z,47.80
2023-02-22T22:32:12.469Z,51.40
2023-02-22T22:34:50.089Z,54.90
2023-02-22T22:37:28.170Z,53.50
2023-02-22T22:40:06.310Z,50.90
2023-02-22T22:42:43.020Z,50.70
2023-02-22T22:45:21.875Z,52.10
2023-02-22T22:47:58.200Z,55.00
2023-02-22T22:50:36.487Z,53.50
2023-02-22T22:53:13.343Z,49.60
2023-02-22T22:55:53.315Z,48.40
2023-02-22T22:58:29.679Z,49.00
2023-02-22T23:01:07.945Z,50.30
2023-02-22T23:03:48.361Z,50.80
2023-02-22T23:06:27.416Z,49.10
2023-02-22T23:09:20.622Z,49.90
2023-02-22T23:11:58.769Z,48.80
2023-02-22T23:14:37.537Z,48.30
2023-02-22T23:17:27.306Z,46.10
2023-02-22T23:20:11.235Z,44.90
2023-02-22T23:22:47.979Z,46.00
2023-02-22T23:25:26.729Z,46.50
2023-02-22T23:28:03.128Z,41.90
2023-02-22T23:30:43.079Z,43.90
2023-02-22T23:33:19.751Z,43.90
2023-02-22T23:35:56.989Z,44.40
2023-02-22T23:38:35.451Z,45.00
2023-02-22T23:41:14.533Z,43.60
2023-02-22T23:43:53.231Z,42.00
2023-02-22T23:46:33.050Z,44.80
2023-02-22T23:49:12.301Z,43.80
2023-02-22T23:51:49.701Z,41.00
2023-02-22T23:54:38.174Z,43.50
2023-02-22T23:57:17.762Z,44.90
2023-02-22T23:59:54.588Z,41.90
